createdAt,value
2022-09-04T00:01:12.170Z,16.48
2022-09-04T00:03:52.188Z,14.63
2022-09-04T00:06:27.408Z,16.48
2022-09-04T00:09:52.723Z,16.45
2022-09-04T00:12:36.425Z,16.11
2022-09-04T00:15:38.113Z,16.37
2022-09-04T00:18:34.560Z,16.28
2022-09-04T00:21:22.793Z,16.25
2022-09-04T00:24:15.142Z,16.22
2022-09-04T00:27:15.851Z,16.21
2022-09-04T00:30:05.018Z,16.16
2022-09-04T00:32:45.247Z,15.23
2022-09-04T00:35:18.640Z,16.08
2022-09-04T00:38:17.302Z,16.03
2022-09-04T00:41:13.822Z,16.04
2022-09-04T00:47:14.024Z,15.98
2022-09-04T00:50:13.529Z,15.93
2022-09-04T00:52:50.216Z,15.94
2022-09-04T00:55:56.542Z,15.93
2022-09-04T00:58:51.177Z,15.90
2022-09-04T01:01:36.777Z,15.53
2022-09-04T01:04:27.209Z,15.84
2022-09-04T01:07:25.203Z,15.83
2022-09-04T01:10:31.038Z,14.65
2022-09-04T01:13:17.343Z,15.81
2022-09-04T01:16:31.778Z,14.13
2022-09-04T01:19:39.201Z,15.83
2022-09-04T01:22:52.391Z,14.80
2022-09-04T01:25:56.203Z,15.80
2022-09-04T01:29:07.886Z,15.75
2022-09-04T01:31:54.623Z,15.74
2022-09-04T01:34:55.239Z,15.71
2022-09-04T01:38:20.791Z,15.70
2022-09-04T01:40:57.050Z,14.82
2022-09-04T01:43:38.344Z,15.35
2022-09-04T01:46:27.406Z,15.65
2022-09-04T01:49:22.866Z,15.66
2022-09-04T01:52:07.252Z,15.63
2022-09-04T01:54:43.842Z,15.61
2022-09-04T01:57:22.078Z,15.60
2022-09-04T02:00:11.309Z,15.56
2022-09-04T02:02:47.653Z,15.52
2022-09-04T02:05:30.935Z,15.48
2022-09-04T02:08:36.259Z,15.11
2022-09-04T02:11:28.236Z,15.39
2022-09-04T02:14:41.523Z,15.36
2022-09-04T02:17:48.100Z,15.34
2022-09-04T02:20:29.480Z,14.92
2022-09-04T02:23:38.270Z,15.32
2022-09-04T02:26:30.544Z,15.28
2022-09-04T02:29:16.127Z,13.34
2022-09-04T02:32:16.748Z,15.29
2022-09-04T02:35:00.079Z,13.22
2022-09-04T02:37:53.528Z,15.26
2022-09-04T02:40:55.557Z,15.18
2022-09-04T02:43:50.650Z,15.11
2022-09-04T02:46:44.257Z,15.06
2022-09-04T02:49:29.654Z,15.02
2022-09-04T02:52:33.886Z,14.96
2022-09-04T02:55:37.821Z,14.92
2022-09-04T02:58:40.129Z,14.87
2022-09-04T03:01:25.089Z,14.85
2022-09-04T03:04:16.654Z,14.82
2022-09-04T03:07:36.092Z,14.78
2022-09-04T03:10:34.342Z,14.72
2022-09-04T03:13:09.446Z,14.40
2022-09-04T03:15:44.220Z,14.33
2022-09-04T03:18:23.202Z,14.33
2022-09-04T03:21:04.779Z,14.69
2022-09-04T03:23:52.342Z,14.69
2022-09-04T03:26:29.422Z,14.69
2022-09-04T03:29:05.542Z,14.70
2022-09-04T03:32:00.788Z,14.69
2022-09-04T03:35:20.610Z,14.68
2022-09-04T03:38:04.547Z,14.69
2022-09-04T03:40:37.512Z,14.36
2022-09-04T03:43:44.430Z,14.67
2022-09-04T03:46:39.608Z,14.68
2022-09-04T03:49:35.987Z,14.67
2022-09-04T03:52:17.727Z,14.64
2022-09-04T03:54:55.231Z,14.64
2022-09-04T03:57:38.279Z,14.70
2022-09-04T04:00:21.876Z,13.67
2022-09-04T04:03:05.898Z,14.64
2022-09-04T04:05:44.243Z,13.62
2022-09-04T04:08:42.490Z,14.15
2022-09-04T04:11:32.754Z,14.57
2022-09-04T04:14:38.220Z,14.55
2022-09-04T04:17:37.015Z,14.54
2022-09-04T04:20:24.428Z,14.23
2022-09-04T04:23:29.413Z,14.52
2022-09-04T04:26:14.998Z,13.76
2022-09-04T04:29:03.091Z,14.60
2022-09-04T04:32:10.457Z,14.58
2022-09-04T04:35:12.696Z,14.61
2022-09-04T04:37:54.186Z,14.13
2022-09-04T04:41:00.335Z,14.63
2022-09-04T04:43:45.161Z,14.62
2022-09-04T04:46:33.382Z,14.63
2022-09-04T04:49:38.634Z,14.64
2022-09-04T04:52:44.396Z,14.63
2022-09-04T04:55:15.588Z,13.73
2022-09-04T04:57:54.731Z,14.62
2022-09-04T05:00:27.974Z,14.59
2022-09-04T05:03:15.505Z,14.61
2022-09-04T05:05:59.570Z,14.64
2022-09-04T05:09:03.726Z,14.67
2022-09-04T05:11:40.008Z,14.36
2022-09-04T05:14:28.070Z,14.61
2022-09-04T05:17:15.081Z,14.83
2022-09-04T05:19:50.268Z,14.89
2022-09-04T05:22:35.178Z,14.93
2022-09-04T05:25:07.694Z,15.01
2022-09-04T05:28:21.626Z,15.01
2022-09-04T05:31:02.517Z,14.90
2022-09-04T05:33:28.940Z,15.05
2022-09-04T05:36:08.772Z,15.17
2022-09-04T05:38:44.152Z,15.26
2022-09-04T05:41:34.125Z,15.38
2022-09-04T05:44:08.382Z,14.83
2022-09-04T05:46:42.920Z,15.60
2022-09-04T05:49:32.913Z,14.71
2022-09-04T05:52:21.226Z,15.70
2022-09-04T05:55:11.113Z,15.76
2022-09-04T05:58:23.733Z,15.89
2022-09-04T06:00:56.398Z,15.63
2022-09-04T06:03:41.149Z,15.99
2022-09-04T06:06:26.693Z,15.69
2022-09-04T06:09:28.363Z,15.55
2022-09-04T06:12:28.869Z,16.17
2022-09-04T06:14:58.762Z,16.08
2022-09-04T06:17:51.146Z,16.39
2022-09-04T06:20:29.670Z,16.39
2022-09-04T06:23:09.431Z,16.08
2022-09-04T06:26:13.861Z,16.73
2022-09-04T06:29:05.960Z,16.93
2022-09-04T06:31:43.453Z,16.29
2022-09-04T06:34:43.164Z,16.82
2022-09-04T06:37:33.209Z,17.33
2022-09-04T06:40:10.525Z,17.52
2022-09-04T06:43:00.069Z,17.57
2022-09-04T06:45:55.866Z,16.79
2022-09-04T06:48:37.197Z,17.79
2022-09-04T06:51:18.511Z,17.37
2022-09-04T06:54:49.781Z,17.89
2022-09-04T06:57:30.645Z,17.70
2022-09-04T07:00:08.467Z,18.20
2022-09-04T07:02:44.614Z,18.15
2022-09-04T07:05:31.358Z,18.32
2022-09-04T07:08:13.094Z,17.97
2022-09-04T07:10:45.682Z,18.60
2022-09-04T07:13:54.281Z,18.41
2022-09-04T07:17:05.592Z,18.91
2022-09-04T07:19:38.229Z,18.96
2022-09-04T07:22:05.102Z,19.01
2022-09-04T07:24:57.069Z,19.16
2022-09-04T07:27:40.631Z,19.24
2022-09-04T07:30:09.279Z,19.32
2022-09-04T07:32:59.619Z,19.64
2022-09-04T07:35:57.029Z,19.96
2022-09-04T07:38:26.315Z,20.16
2022-09-04T07:41:02.115Z,19.93
2022-09-04T07:43:42.452Z,20.44
2022-09-04T07:46:25.185Z,20.49
2022-09-04T07:49:09.979Z,20.20
2022-09-04T07:51:47.488Z,20.32
2022-09-04T07:54:29.501Z,20.57
2022-09-04T07:57:28.794Z,20.83
2022-09-04T08:00:05.055Z,21.07
2022-09-04T08:03:11.957Z,21.11
2022-09-04T08:05:49.357Z,21.25
2022-09-04T08:08:31.475Z,21.30
2022-09-04T08:11:30.700Z,21.50
2022-09-04T08:14:23.395Z,21.65
2022-09-04T08:17:00.602Z,21.26
2022-09-04T08:19:54.700Z,21.53
2022-09-04T08:22:37.637Z,21.22
2022-09-04T08:25:29.929Z,21.68
2022-09-04T08:28:46.476Z,22.22
2022-09-04T08:31:24.225Z,22.35
2022-09-04T08:34:00.077Z,22.54
2022-09-04T08:36:39.496Z,22.25
2022-09-04T08:39:28.920Z,23.01
2022-09-04T08:42:05.774Z,22.80
2022-09-04T08:44:35.073Z,22.97
2022-09-04T08:47:28.394Z,22.94
2022-09-04T08:50:23.862Z,23.08
2022-09-04T08:53:08.993Z,23.18
2022-09-04T08:56:06.351Z,23.10
2022-09-04T08:58:54.200Z,23.28
2022-09-04T09:01:37.382Z,23.46
2022-09-04T09:04:47.738Z,23.72
2022-09-04T09:08:04.926Z,23.61
2022-09-04T09:11:10.506Z,23.07
2022-09-04T09:14:02.123Z,23.83
2022-09-04T09:16:43.124Z,23.62
2022-09-04T09:19:47.406Z,23.39
2022-09-04T09:22:49.498Z,24.13
2022-09-04T09:25:23.976Z,24.49
2022-09-04T09:28:23.375Z,24.54
2022-09-04T09:31:12.340Z,24.62
2022-09-04T09:34:00.648Z,24.57
2022-09-04T09:37:04.749Z,24.83
2022-09-04T09:40:01.479Z,24.91
2022-09-04T09:42:48.314Z,24.84
2022-09-04T09:45:37.801Z,24.90
2022-09-04T09:48:37.997Z,24.81
2022-09-04T09:51:34.873Z,24.26
2022-09-04T09:54:42.114Z,25.25
2022-09-04T09:57:29.699Z,25.43
2022-09-04T10:00:21.217Z,25.72
2022-09-04T10:03:24.661Z,25.37
2022-09-04T10:06:27.242Z,25.94
2022-09-04T10:09:39.049Z,26.21
2022-09-04T10:12:43.897Z,26.28
2022-09-04T10:15:10.382Z,26.16
2022-09-04T10:18:07.229Z,26.16
2022-09-04T10:20:53.952Z,26.34
2022-09-04T10:23:31.191Z,25.57
2022-09-04T10:26:16.052Z,26.78
2022-09-04T10:28:57.087Z,26.61
2022-09-04T10:31:47.364Z,26.77
2022-09-04T10:34:38.819Z,26.49
2022-09-04T10:37:30.045Z,26.38
2022-09-04T10:40:33.690Z,26.50
2022-09-04T10:43:32.140Z,26.84
2022-09-04T10:46:22.678Z,26.99
2022-09-04T10:49:12.092Z,27.27
2022-09-04T10:52:04.941Z,27.06
2022-09-04T10:55:14.800Z,27.23
2022-09-04T10:57:59.777Z,27.32
2022-09-04T11:00:53.393Z,27.26
2022-09-04T11:03:46.955Z,26.92
2022-09-04T11:06:26.297Z,27.48
2022-09-04T11:09:00.479Z,27.39
2022-09-04T11:11:45.165Z,27.65
2022-09-04T11:14:35.693Z,27.81
2022-09-04T11:17:14.241Z,28.49
2022-09-04T11:20:17.594Z,28.86
2022-09-04T11:23:22.684Z,28.94
2022-09-04T11:26:37.959Z,29.19
2022-09-04T11:29:22.402Z,29.28
2022-09-04T11:32:12.070Z,28.77
2022-09-04T11:35:00.540Z,29.50
2022-09-04T11:37:38.674Z,29.89
2022-09-04T11:40:39.124Z,30.07
2022-09-04T11:43:29.777Z,30.43
2022-09-04T11:46:27.259Z,29.25
2022-09-04T11:49:13.281Z,28.95
2022-09-04T11:52:18.096Z,30.67
2022-09-04T11:55:26.194Z,30.55
2022-09-04T11:58:08.366Z,29.85
2022-09-04T12:01:09.273Z,30.22
2022-09-04T12:04:01.881Z,30.10
2022-09-04T12:07:02.314Z,29.97
2022-09-04T12:09:28.972Z,29.37
2022-09-04T12:12:14.459Z,29.20
2022-09-04T12:15:08.553Z,29.34
2022-09-04T12:17:57.180Z,28.54
2022-09-04T12:20:31.039Z,29.22
2022-09-04T12:23:03.760Z,28.92
2022-09-04T12:25:39.353Z,28.96
2022-09-04T12:28:25.052Z,28.69
2022-09-04T12:31:10.272Z,28.19
2022-09-04T12:33:49.160Z,28.57
2022-09-04T12:36:26.419Z,28.35
2022-09-04T12:39:03.505Z,28.13
2022-09-04T12:41:56.454Z,28.32
2022-09-04T12:44:42.454Z,28.47
2022-09-04T12:47:33.151Z,27.68
2022-09-04T12:50:17.848Z,27.16
2022-09-04T12:53:25.796Z,28.51
2022-09-04T12:56:03.815Z,27.16
2022-09-04T12:58:36.300Z,28.74
2022-09-04T13:01:19.281Z,29.49
2022-09-04T13:04:22.085Z,29.82
2022-09-04T13:07:07.087Z,29.71
2022-09-04T13:10:07.409Z,29.19
2022-09-04T13:12:46.253Z,30.16
2022-09-04T13:15:51.065Z,29.99
2022-09-04T13:18:44.640Z,30.26
2022-09-04T13:21:51.593Z,30.68
2022-09-04T13:24:26.576Z,30.36
2022-09-04T13:27:07.600Z,29.79
2022-09-04T13:29:50.532Z,30.61
2022-09-04T13:32:41.906Z,30.43
2022-09-04T13:35:50.344Z,30.58
2022-09-04T13:38:58.230Z,30.29
2022-09-04T13:41:50.758Z,30.40
2022-09-04T13:44:54.374Z,29.26
2022-09-04T13:47:31.936Z,28.89
2022-09-04T13:50:17.286Z,28.88
2022-09-04T13:52:59.726Z,28.53
2022-09-04T13:55:34.713Z,29.49
2022-09-04T13:58:13.987Z,29.03
2022-09-04T14:00:49.377Z,29.19
2022-09-04T14:03:38.369Z,29.10
2022-09-04T14:06:08.718Z,28.38
2022-09-04T14:08:37.661Z,27.00
2022-09-04T14:11:19.252Z,29.03
2022-09-04T14:13:50.961Z,29.28
2022-09-04T14:16:18.876Z,28.57
2022-09-04T14:18:59.176Z,29.02
2022-09-04T14:21:44.297Z,28.47
2022-09-04T14:24:38.663Z,28.84
2022-09-04T14:27:28.750Z,29.93
2022-09-04T14:30:17.082Z,29.59
2022-09-04T14:32:56.886Z,26.63
2022-09-04T14:35:36.448Z,28.57
2022-09-04T14:38:25.032Z,28.88
2022-09-04T14:41:18.818Z,28.02
2022-09-04T14:43:59.385Z,28.73
2022-09-04T14:46:38.438Z,28.05
2022-09-04T14:49:08.689Z,28.70
2022-09-04T14:51:46.454Z,28.70
2022-09-04T14:54:23.012Z,29.19
2022-09-04T14:56:56.683Z,28.35
2022-09-04T14:59:37.245Z,28.77
2022-09-04T15:02:10.261Z,29.47
2022-09-04T15:05:14.606Z,29.59
2022-09-04T15:07:43.808Z,29.72
2022-09-04T15:10:31.565Z,28.21
2022-09-04T15:13:14.718Z,29.61
2022-09-04T15:15:49.619Z,28.66
2022-09-04T15:18:58.993Z,29.44
2022-09-04T15:21:37.466Z,29.34
2022-09-04T15:24:15.487Z,28.67
2022-09-04T15:26:55.611Z,29.37
2022-09-04T15:29:57.398Z,28.57
2022-09-04T15:32:26.645Z,29.15
2022-09-04T15:35:21.115Z,29.15
2022-09-04T15:37:51.585Z,28.90
2022-09-04T15:40:28.445Z,28.75
2022-09-04T15:43:10.117Z,29.07
2022-09-04T15:45:57.928Z,28.57
2022-09-04T15:48:40.433Z,27.13
2022-09-04T15:51:15.995Z,28.31
2022-09-04T15:54:00.637Z,28.16
2022-09-04T15:56:49.522Z,26.20
2022-09-04T15:59:20.356Z,28.10
2022-09-04T16:01:55.821Z,27.65
2022-09-04T16:04:34.866Z,27.63
2022-09-04T16:07:20.247Z,28.32
2022-09-04T16:09:53.534Z,27.69
2022-09-04T16:12:32.030Z,27.93
2022-09-04T16:15:05.608Z,27.22
2022-09-04T16:17:42.351Z,27.87
2022-09-04T16:20:20.658Z,27.53
2022-09-04T16:22:58.483Z,27.90
2022-09-04T16:25:40.521Z,27.90
2022-09-04T16:28:40.885Z,27.50
2022-09-04T16:31:12.920Z,27.81
2022-09-04T16:33:53.324Z,26.94
2022-09-04T16:36:36.089Z,27.53
2022-09-04T16:39:25.340Z,27.77
2022-09-04T16:42:10.424Z,27.85
2022-09-04T16:44:45.388Z,27.80
2022-09-04T16:47:40.843Z,27.04
2022-09-04T16:50:35.526Z,27.65
2022-09-04T16:53:29.177Z,27.63
2022-09-04T16:56:09.311Z,26.31
2022-09-04T16:59:00.287Z,26.87
2022-09-04T17:01:32.225Z,27.06
2022-09-04T17:04:13.645Z,27.32
2022-09-04T17:07:12.143Z,27.24
2022-09-04T17:10:01.615Z,26.66
2022-09-04T17:12:34.178Z,26.98
2022-09-04T17:15:53.686Z,26.90
2022-09-04T17:18:26.401Z,26.23
2022-09-04T17:22:44.920Z,26.65
2022-09-04T17:29:08.639Z,24.60
2022-09-04T17:29:17.724Z,26.44
2022-09-04T17:30:31.609Z,25.91
2022-09-04T17:36:23.581Z,25.65
2022-09-04T17:40:43.796Z,26.13
2022-09-04T17:40:55.712Z,25.98
2022-09-04T17:42:16.798Z,25.86
2022-09-04T17:45:10.086Z,25.25
2022-09-04T17:47:45.339Z,25.16
2022-09-04T17:50:16.463Z,25.15
2022-09-04T17:53:02.125Z,25.48
2022-09-04T17:55:39.039Z,25.41
2022-09-04T17:58:26.425Z,25.01
2022-09-04T18:01:15.538Z,25.21
2022-09-04T18:04:08.118Z,25.14
2022-09-04T18:06:44.410Z,25.02
2022-09-04T18:09:26.852Z,24.91
2022-09-04T18:12:04.501Z,24.79
2022-09-04T18:14:37.503Z,24.51
2022-09-04T18:17:29.090Z,24.66
2022-09-04T18:20:10.578Z,24.42
2022-09-04T18:23:14.451Z,24.49
2022-09-04T18:25:59.550Z,24.00
2022-09-04T18:28:56.885Z,24.30
2022-09-04T18:37:09.174Z,23.11
2022-09-04T18:37:23.209Z,23.29
2022-09-04T18:37:47.357Z,23.97
2022-09-04T18:41:22.186Z,23.90
2022-09-04T18:50:20.804Z,23.80
2022-09-04T18:50:32.099Z,23.63
2022-09-04T18:50:50.997Z,23.71
2022-09-04T18:52:04.583Z,22.73
2022-09-04T18:54:42.486Z,22.21
2022-09-04T18:57:33.727Z,22.55
2022-09-04T19:00:10.477Z,19.38
2022-09-04T19:02:53.456Z,21.11
2022-09-04T19:05:22.070Z,23.42
2022-09-04T19:08:02.735Z,23.34
2022-09-04T19:10:50.624Z,22.62
2022-09-04T19:13:30.461Z,23.17
2022-09-04T19:16:08.797Z,23.05
2022-09-04T19:18:45.362Z,22.87
2022-09-04T19:21:17.484Z,22.75
2022-09-04T19:23:58.891Z,22.61
2022-09-04T19:26:46.593Z,22.30
2022-09-04T19:29:38.559Z,22.04
2022-09-04T19:32:12.132Z,22.21
2022-09-04T19:35:15.603Z,21.43
2022-09-04T19:39:32.854Z,22.01
2022-09-04T19:46:03.652Z,21.95
2022-09-04T19:46:13.432Z,21.83
2022-09-04T19:47:09.546Z,21.70
2022-09-04T19:52:50.038Z,21.00
2022-09-04T19:53:35.806Z,21.56
2022-09-04T19:55:48.698Z,21.51
2022-09-04T19:58:25.132Z,21.34
2022-09-04T20:00:58.119Z,20.88
2022-09-04T20:03:33.440Z,21.16
2022-09-04T20:06:20.741Z,21.18
2022-09-04T20:08:59.189Z,20.27
2022-09-04T20:11:35.619Z,20.86
2022-09-04T20:14:14.187Z,20.75
2022-09-04T20:17:05.889Z,21.06
2022-09-04T20:19:47.256Z,20.36
2022-09-04T20:22:28.703Z,18.06
2022-09-04T20:25:28.506Z,20.40
2022-09-04T20:28:15.767Z,16.43
2022-09-04T20:30:47.818Z,20.81
2022-09-04T20:33:24.610Z,20.16
2022-09-04T20:36:22.835Z,19.48
2022-09-04T20:39:19.709Z,19.88
2022-09-04T20:41:56.657Z,20.02
2022-09-04T20:47:26.157Z,20.56
2022-09-04T20:52:42.204Z,18.88
2022-09-04T20:53:05.756Z,19.33
2022-09-04T20:54:06.305Z,19.50
2022-09-04T20:58:04.120Z,20.30
2022-09-04T21:03:15.015Z,20.24
2022-09-04T21:06:28.550Z,20.15
2022-09-04T21:09:16.362Z,20.07
2022-09-04T21:11:50.108Z,20.03
2022-09-04T21:14:26.918Z,19.44
2022-09-04T21:17:29.881Z,19.97
2022-09-04T21:20:26.520Z,19.91
2022-09-04T21:23:57.880Z,19.90
2022-09-04T21:26:44.257Z,19.25
2022-09-04T21:29:32.010Z,19.81
2022-09-04T21:32:08.566Z,19.51
2022-09-04T21:34:53.880Z,19.78
2022-09-04T21:37:29.839Z,19.75
2022-09-04T21:40:51.924Z,19.39
2022-09-04T21:43:40.518Z,19.68
2022-09-04T21:46:46.079Z,18.54
2022-09-04T21:49:26.770Z,19.60
2022-09-04T21:51:56.348Z,19.53
2022-09-04T21:59:04.677Z,19.44
2022-09-04T22:02:36.259Z,19.05
2022-09-04T22:02:45.890Z,19.27
2022-09-04T22:04:25.457Z,19.25
2022-09-04T22:10:38.513Z,19.23
2022-09-04T22:13:39.584Z,18.84
2022-09-04T22:13:43.727Z,19.19
2022-09-04T22:16:34.916Z,18.95
2022-09-04T22:19:16.092Z,18.90
2022-09-04T22:21:52.281Z,19.09
2022-09-04T22:24:30.898Z,19.08
2022-09-04T22:27:07.891Z,19.06
2022-09-04T22:30:11.214Z,19.03
2022-09-04T22:32:46.721Z,18.99
2022-09-04T22:35:35.677Z,18.15
2022-09-04T22:38:11.473Z,18.98
2022-09-04T22:40:57.197Z,18.95
2022-09-04T22:43:26.031Z,18.48
2022-09-04T22:46:33.399Z,18.87
2022-09-04T22:49:20.853Z,18.81
2022-09-04T22:52:10.069Z,18.77
2022-09-04T22:55:17.613Z,18.53
2022-09-04T22:58:18.107Z,18.70
2022-09-04T23:01:06.633Z,18.72
2022-09-04T23:03:49.019Z,18.70
2022-09-04T23:06:54.399Z,18.66
2022-09-04T23:13:56.778Z,18.53
2022-09-04T23:13:57.111Z,18.59
2022-09-04T23:16:18.091Z,18.51
2022-09-04T23:23:18.704Z,18.49
2022-09-04T23:26:37.263Z,18.46
2022-09-04T23:26:43.221Z,18.27
2022-09-04T23:28:41.157Z,17.36
2022-09-04T23:31:37.303Z,18.31
2022-09-04T23:34:37.971Z,18.50
2022-09-04T23:37:27.836Z,18.51
2022-09-04T23:40:43.590Z,18.56
2022-09-04T23:44:07.206Z,18.51
2022-09-04T23:46:45.775Z,18.54
2022-09-04T23:49:34.826Z,18.50
2022-09-04T23:52:08.037Z,18.51
2022-09-04T23:55:03.270Z,18.50
2022-09-04T23:57:44.829Z,17.53
